sensor_id;sensor_type;location;lat;lon;timestamp;temperature;humidity
7472;DHT22;3777;48.722;8.110;2022-07-22T00:02:20;20.40;99.90
7472;DHT22;3777;48.722;8.110;2022-07-22T00:04:47;20.40;99.90
7472;DHT22;3777;48.722;8.110;2022-07-22T00:07:14;20.40;99.90
7472;DHT22;3777;48.722;8.110;2022-07-22T00:09:41;20.40;99.90
7472;DHT22;3777;48.722;8.110;2022-07-22T00:12:10;20.40;99.90
7472;DHT22;3777;48.722;8.110;2022-07-22T00:14:37;20.40;99.90
7472;DHT22;3777;48.722;8.110;2022-07-22T00:17:04;20.30;99.90
7472;DHT22;3777;48.722;8.110;2022-07-22T00:19:31;20.30;99.90
7472;DHT22;3777;48.722;8.110;2022-07-22T00:21:58;20.30;99.90
7472;DHT22;3777;48.722;8.110;2022-07-22T00:24:25;20.30;99.90
7472;DHT22;3777;48.722;8.110;2022-07-22T00:26:52;20.40;99.90
7472;DHT22;3777;48.722;8.110;2022-07-22T00:29:21;20.40;99.90
7472;DHT22;3777;48.722;8.110;2022-07-22T00:31:48;20.40;99.90
7472;DHT22;3777;48.722;8.110;2022-07-22T00:34:15;20.40;99.90
7472;DHT22;3777;48.722;8.110;2022-07-22T00:36:42;20.40;99.90
7472;DHT22;3777;48.722;8.110;2022-07-22T00:39:09;20.40;99.90
7472;DHT22;3777;48.722;8.110;2022-07-22T00:41:36;20.40;99.90
7472;DHT22;3777;48.722;8.110;2022-07-22T00:44:04;20.40;99.90
7472;DHT22;3777;48.722;8.110;2022-07-22T00:46:34;20.60;99.90
7472;DHT22;3777;48.722;8.110;2022-07-22T00:49:02;20.70;99.90
7472;DHT22;3777;48.722;8.110;2022-07-22T00:51:30;20.70;99.90
7472;DHT22;3777;48.722;8.110;2022-07-22T00:53:58;20.60;99.90
7472;DHT22;3777;48.722;8.110;2022-07-22T00:56:26;20.60;99.90
7472;DHT22;3777;48.722;8.110;2022-07-22T00:58:56;20.60;99.90
7472;DHT22;3777;48.722;8.110;2022-07-22T01:01:24;20.70;99.90
7472;DHT22;3777;48.722;8.110;2022-07-22T01:03:52;20.70;99.90
7472;DHT22;3777;48.722;8.110;2022-07-22T01:06:19;20.70;99.90
7472;DHT22;3777;48.722;8.110;2022-07-22T01:08:46;20.70;99.90
7472;DHT22;3777;48.722;8.110;2022-07-22T01:11:15;20.80;99.90
7472;DHT22;3777;48.722;8.110;2022-07-22T01:13:43;20.70;99.90
7472;DHT22;3777;48.722;8.110;2022-07-22T01:16:11;20.80;99.90
7472;DHT22;3777;48.722;8.110;2022-07-22T01:18:39;20.80;99.90
7472;DHT22;3777;48.722;8.110;2022-07-22T01:21:09;20.80;99.90
7472;DHT22;3777;48.722;8.110;2022-07-22T01:23:36;20.80;99.90
7472;DHT22;3777;48.722;8.110;2022-07-22T01:26:04;20.70;99.90
7472;DHT22;3777;48.722;8.110;2022-07-22T01:28:31;20.70;99.90
7472;DHT22;3777;48.722;8.110;2022-07-22T01:30:58;20.70;99.90
7472;DHT22;3777;48.722;8.110;2022-07-22T01:33:26;20.70;99.90
7472;DHT22;3777;48.722;8.110;2022-07-22T01:35:53;20.70;99.90
7472;DHT22;3777;48.722;8.110;2022-07-22T01:38:22;20.60;99.90
7472;DHT22;3777;48.722;8.110;2022-07-22T01:40:49;20.60;99.90
7472;DHT22;3777;48.722;8.110;2022-07-22T01:43:16;20.60;99.90
7472;DHT22;3777;48.722;8.110;2022-07-22T01:45:47;20.50;99.90
7472;DHT22;3777;48.722;8.110;2022-07-22T01:48:14;20.60;99.90
7472;DHT22;3777;48.722;8.110;2022-07-22T01:50:42;20.50;99.90
7472;DHT22;3777;48.722;8.110;2022-07-22T01:53:09;20.50;99.90
7472;DHT22;3777;48.722;8.110;2022-07-22T01:55:38;20.40;99.90
7472;DHT22;3777;48.722;8.110;2022-07-22T01:58:05;20.40;99.90
7472;DHT22;3777;48.722;8.110;2022-07-22T02:00:33;20.40;99.90
7472;DHT22;3777;48.722;8.110;2022-07-22T02:03:00;20.50;99.90
7472;DHT22;3777;48.722;8.110;2022-07-22T02:05:27;20.50;99.90
7472;DHT22;3777;48.722;8.110;2022-07-22T02:07:59;20.40;99.90
7472;DHT22;3777;48.722;8.110;2022-07-22T02:10:26;20.40;99.90
7472;DHT22;3777;48.722;8.110;2022-07-22T02:12:55;20.40;99.90
7472;DHT22;3777;48.722;8.110;2022-07-22T02:15:22;20.40;99.90
7472;DHT22;3777;48.722;8.110;2022-07-22T02:17:49;20.40;99.90
7472;DHT22;3777;48.722;8.110;2022-07-22T02:20:16;20.40;99.90
7472;DHT22;3777;48.722;8.110;2022-07-22T02:22:43;20.40;99.90
7472;DHT22;3777;48.722;8.110;2022-07-22T02:25:11;20.40;99.90
7472;DHT22;3777;48.722;8.110;2022-07-22T02:27:38;20.40;99.90
7472;DHT22;3777;48.722;8.110;2022-07-22T02:30:08;20.40;99.90
7472;DHT22;3777;48.722;8.110;2022-07-22T02:32:35;20.40;99.90
7472;DHT22;3777;48.722;8.110;2022-07-22T02:35:03;20.40;99.90
7472;DHT22;3777;48.722;8.110;2022-07-22T02:37:30;20.30;99.90
7472;DHT22;3777;48.722;8.110;2022-07-22T02:39:57;20.30;99.90
7472;DHT22;3777;48.722;8.110;2022-07-22T02:42:24;20.30;99.90
7472;DHT22;3777;48.722;8.110;2022-07-22T02:44:51;20.30;99.90
7472;DHT22;3777;48.722;8.110;2022-07-22T02:47:20;20.30;99.90
7472;DHT22;3777;48.722;8.110;2022-07-22T02:49:47;20.30;99.90
7472;DHT22;3777;48.722;8.110;2022-07-22T02:52:13;20.20;99.90
7472;DHT22;3777;48.722;8.110;2022-07-22T02:54:41;20.30;99.90
7472;DHT22;3777;48.722;8.110;2022-07-22T02:57:08;20.30;99.90
7472;DHT22;3777;48.722;8.110;2022-07-22T02:59:35;20.20;99.90
7472;DHT22;3777;48.722;8.110;2022-07-22T03:02:03;20.30;99.90
7472;DHT22;3777;48.722;8.110;2022-07-22T03:04:31;20.20;99.90
7472;DHT22;3777;48.722;8.110;2022-07-22T03:06:58;20.20;99.90
7472;DHT22;3777;48.722;8.110;2022-07-22T03:09:25;20.10;99.90
7472;DHT22;3777;48.722;8.110;2022-07-22T03:11:52;20.10;99.90
7472;DHT22;3777;48.722;8.110;2022-07-22T03:14:19;20.10;99.90
7472;DHT22;3777;48.722;8.110;2022-07-22T03:16:47;20.10;99.90
7472;DHT22;3777;48.722;8.110;2022-07-22T03:19:14;20.10;99.90
7472;DHT22;3777;48.722;8.110;2022-07-22T03:21:43;20.10;99.90
7472;DHT22;3777;48.722;8.110;2022-07-22T03:24:10;20.10;99.90
7472;DHT22;3777;48.722;8.110;2022-07-22T03:26:37;20.10;99.90
7472;DHT22;3777;48.722;8.110;2022-07-22T03:29:04;20.10;99.90
7472;DHT22;3777;48.722;8.110;2022-07-22T03:31:31;20.10;99.90
7472;DHT22;3777;48.722;8.110;2022-07-22T03:33:58;20.10;99.90
7472;DHT22;3777;48.722;8.110;2022-07-22T03:36:26;20.10;99.90
7472;DHT22;3777;48.722;8.110;2022-07-22T03:38:55;20.00;99.90
7472;DHT22;3777;48.722;8.110;2022-07-22T03:41:22;20.00;99.90
7472;DHT22;3777;48.722;8.110;2022-07-22T03:43:49;20.00;99.90
7472;DHT22;3777;48.722;8.110;2022-07-22T03:46:16;19.90;99.90
7472;DHT22;3777;48.722;8.110;2022-07-22T03:48:43;19.90;99.90
7472;DHT22;3777;48.722;8.110;2022-07-22T03:51:10;19.90;99.90
7472;DHT22;3777;48.722;8.110;2022-07-22T03:53:37;19.90;99.90
7472;DHT22;3777;48.722;8.110;2022-07-22T03:56:07;19.80;99.90
7472;DHT22;3777;48.722;8.110;2022-07-22T03:58:34;19.80;99.90
7472;DHT22;3777;48.722;8.110;2022-07-22T04:01:01;19.80;99.90
7472;DHT22;3777;48.722;8.110;2022-07-22T04:03:28;19.80;99.90
7472;DHT22;3777;48.722;8.110;2022-07-22T04:05:55;19.80;99.90
7472;DHT22;3777;48.722;8.110;2022-07-22T04:08:22;19.80;99.90
7472;DHT22;3777;48.722;8.110;2022-07-22T04:10:49;19.70;99.90
7472;DHT22;3777;48.722;8.110;2022-07-22T04:13:17;19.70;99.90
7472;DHT22;3777;48.722;8.110;2022-07-22T04:15:44;19.70;99.90
7472;DHT22;3777;48.722;8.110;2022-07-22T04:18:11;19.80;99.90
7472;DHT22;3777;48.722;8.110;2022-07-22T04:20:38;19.70;99.90
7472;DHT22;3777;48.722;8.110;2022-07-22T04:23:05;19.80;99.90
7472;DHT22;3777;48.722;8.110;2022-07-22T04:25:32;19.80;99.90
7472;DHT22;3777;48.722;8.110;2022-07-22T04:27:59;19.90;99.90
7472;DHT22;3777;48.722;8.110;2022-07-22T04:30:28;19.90;99.90
7472;DHT22;3777;48.722;8.110;2022-07-22T04:32:55;20.10;99.90
7472;DHT22;3777;48.722;8.110;2022-07-22T04:35:22;20.10;99.90
7472;DHT22;3777;48.722;8.110;2022-07-22T04:37:49;20.10;99.90
7472;DHT22;3777;48.722;8.110;2022-07-22T04:40:16;20.20;99.90
7472;DHT22;3777;48.722;8.110;2022-07-22T04:42:43;20.20;99.90
7472;DHT22;3777;48.722;8.110;2022-07-22T04:45:11;20.20;99.90
7472;DHT22;3777;48.722;8.110;2022-07-22T04:47:39;20.20;99.90
7472;DHT22;3777;48.722;8.110;2022-07-22T04:50:07;20.20;99.90
7472;DHT22;3777;48.722;8.110;2022-07-22T04:52:34;20.30;99.90
7472;DHT22;3777;48.722;8.110;2022-07-22T04:55:01;20.40;99.90
7472;DHT22;3777;48.722;8.110;2022-07-22T04:57:29;20.50;99.90
7472;DHT22;3777;48.722;8.110;2022-07-22T04:59:56;20.50;99.90
7472;DHT22;3777;48.722;8.110;2022-07-22T05:02:23;20.60;99.90
7472;DHT22;3777;48.722;8.110;2022-07-22T05:04:51;20.60;99.90
7472;DHT22;3777;48.722;8.110;2022-07-22T05:07:18;20.70;99.90
7472;DHT22;3777;48.722;8.110;2022-07-22T05:09:45;20.70;99.90
7472;DHT22;3777;48.722;8.110;2022-07-22T05:12:12;20.80;99.90
7472;DHT22;3777;48.722;8.110;2022-07-22T05:14:39;20.80;99.90
7472;DHT22;3777;48.722;8.110;2022-07-22T05:17:09;21.00;99.90
7472;DHT22;3777;48.722;8.110;2022-07-22T05:19:37;21.00;99.90
7472;DHT22;3777;48.722;8.110;2022-07-22T05:22:07;21.00;99.90
7472;DHT22;3777;48.722;8.110;2022-07-22T05:24:34;21.10;99.90
7472;DHT22;3777;48.722;8.110;2022-07-22T05:27:02;21.10;99.90
7472;DHT22;3777;48.722;8.110;2022-07-22T05:29:29;21.20;99.90
7472;DHT22;3777;48.722;8.110;2022-07-22T05:31:56;21.30;99.90
7472;DHT22;3777;48.722;8.110;2022-07-22T05:34:23;21.50;99.90
7472;DHT22;3777;48.722;8.110;2022-07-22T05:36:50;21.60;99.90
7472;DHT22;3777;48.722;8.110;2022-07-22T05:39:19;21.70;99.90
7472;DHT22;3777;48.722;8.110;2022-07-22T05:41:45;21.90;99.90
7472;DHT22;3777;48.722;8.110;2022-07-22T05:44:13;21.90;99.90
7472;DHT22;3777;48.722;8.110;2022-07-22T05:46:40;22.10;99.90
7472;DHT22;3777;48.722;8.110;2022-07-22T05:49:07;22.30;99.90
7472;DHT22;3777;48.722;8.110;2022-07-22T05:51:34;22.50;99.90
7472;DHT22;3777;48.722;8.110;2022-07-22T05:54:01;22.80;99.90
7472;DHT22;3777;48.722;8.110;2022-07-22T05:56:31;23.10;99.90
7472;DHT22;3777;48.722;8.110;2022-07-22T05:58:58;23.40;99.90
7472;DHT22;3777;48.722;8.110;2022-07-22T06:01:26;23.60;99.90
7472;DHT22;3777;48.722;8.110;2022-07-22T06:03:53;23.90;99.90
7472;DHT22;3777;48.722;8.110;2022-07-22T06:06:20;24.50;99.90
7472;DHT22;3777;48.722;8.110;2022-07-22T06:08:47;25.10;99.90
7472;DHT22;3777;48.722;8.110;2022-07-22T06:11:14;25.50;99.90
7472;DHT22;3777;48.722;8.110;2022-07-22T06:13:42;26.10;99.90
7472;DHT22;3777;48.722;8.110;2022-07-22T06:16:09;26.40;99.90
7472;DHT22;3777;48.722;8.110;2022-07-22T06:18:36;26.80;99.90
7472;DHT22;3777;48.722;8.110;2022-07-22T06:21:04;27.00;99.90
7472;DHT22;3777;48.722;8.110;2022-07-22T06:23:33;27.50;99.90
7472;DHT22;3777;48.722;8.110;2022-07-22T06:26:00;28.10;99.90
7472;DHT22;3777;48.722;8.110;2022-07-22T06:28:27;28.20;99.90
7472;DHT22;3777;48.722;8.110;2022-07-22T06:30:56;28.10;99.90
7472;DHT22;3777;48.722;8.110;2022-07-22T06:33:23;28.40;99.90
7472;DHT22;3777;48.722;8.110;2022-07-22T06:35:50;28.30;99.90
7472;DHT22;3777;48.722;8.110;2022-07-22T06:38:17;28.40;99.90
7472;DHT22;3777;48.722;8.110;2022-07-22T06:40:44;28.50;99.90
7472;DHT22;3777;48.722;8.110;2022-07-22T06:43:10;28.50;99.90
7472;DHT22;3777;48.722;8.110;2022-07-22T06:45:38;28.10;99.90
7472;DHT22;3777;48.722;8.110;2022-07-22T06:48:06;27.90;99.90
7472;DHT22;3777;48.722;8.110;2022-07-22T06:50:33;27.50;99.90
7472;DHT22;3777;48.722;8.110;2022-07-22T06:53:00;27.50;99.90
7472;DHT22;3777;48.722;8.110;2022-07-22T06:55:27;27.30;99.90
7472;DHT22;3777;48.722;8.110;2022-07-22T06:57:54;27.40;99.90
7472;DHT22;3777;48.722;8.110;2022-07-22T07:00:21;27.30;99.90
7472;DHT22;3777;48.722;8.110;2022-07-22T07:02:48;27.10;99.90
7472;DHT22;3777;48.722;8.110;2022-07-22T07:05:17;26.90;99.90
7472;DHT22;3777;48.722;8.110;2022-07-22T07:07:44;27.10;99.90
7472;DHT22;3777;48.722;8.110;2022-07-22T07:10:11;27.00;99.90
7472;DHT22;3777;48.722;8.110;2022-07-22T07:12:40;27.20;99.90
7472;DHT22;3777;48.722;8.110;2022-07-22T07:15:08;27.10;99.90
7472;DHT22;3777;48.722;8.110;2022-07-22T07:17:35;27.10;99.90
7472;DHT22;3777;48.722;8.110;2022-07-22T07:20:03;27.00;99.90
7472;DHT22;3777;48.722;8.110;2022-07-22T07:22:33;27.00;99.90
7472;DHT22;3777;48.722;8.110;2022-07-22T07:25:02;26.80;99.90
7472;DHT22;3777;48.722;8.110;2022-07-22T07:27:29;26.70;99.90
7472;DHT22;3777;48.722;8.110;2022-07-22T07:29:56;26.40;99.90
7472;DHT22;3777;48.722;8.110;2022-07-22T07:32:23;26.40;99.90
7472;DHT22;3777;48.722;8.110;2022-07-22T07:34:50;26.50;99.90
7472;DHT22;3777;48.722;8.110;2022-07-22T07:37:17;26.60;99.90
7472;DHT22;3777;48.722;8.110;2022-07-22T07:39:46;26.70;99.90
7472;DHT22;3777;48.722;8.110;2022-07-22T07:42:13;26.90;99.90
7472;DHT22;3777;48.722;8.110;2022-07-22T07:44:40;27.00;99.90
7472;DHT22;3777;48.722;8.110;2022-07-22T07:47:07;26.90;99.90
7472;DHT22;3777;48.722;8.110;2022-07-22T07:49:34;26.90;99.90
7472;DHT22;3777;48.722;8.110;2022-07-22T07:52:01;27.20;99.90
7472;DHT22;3777;48.722;8.110;2022-07-22T07:54:28;27.30;99.90
7472;DHT22;3777;48.722;8.110;2022-07-22T07:56:57;27.30;99.90
7472;DHT22;3777;48.722;8.110;2022-07-22T07:59:24;27.50;99.90
7472;DHT22;3777;48.722;8.110;2022-07-22T08:01:51;27.70;99.90
7472;DHT22;3777;48.722;8.110;2022-07-22T08:04:18;27.80;99.90
7472;DHT22;3777;48.722;8.110;2022-07-22T08:06:45;27.90;99.90
7472;DHT22;3777;48.722;8.110;2022-07-22T08:09:12;28.10;99.90
7472;DHT22;3777;48.722;8.110;2022-07-22T08:11:39;28.40;99.90
7472;DHT22;3777;48.722;8.110;2022-07-22T08:14:07;28.60;99.90
7472;DHT22;3777;48.722;8.110;2022-07-22T08:16:34;28.80;99.90
7472;DHT22;3777;48.722;8.110;2022-07-22T08:19:01;28.90;99.90
7472;DHT22;3777;48.722;8.110;2022-07-22T08:21:28;29.10;99.90
7472;DHT22;3777;48.722;8.110;2022-07-22T08:23:55;29.10;99.90
7472;DHT22;3777;48.722;8.110;2022-07-22T08:26:22;29.30;99.90
7472;DHT22;3777;48.722;8.110;2022-07-22T08:28:49;29.50;99.90
7472;DHT22;3777;48.722;8.110;2022-07-22T08:31:18;29.50;99.90
7472;DHT22;3777;48.722;8.110;2022-07-22T08:33:45;29.50;99.90
7472;DHT22;3777;48.722;8.110;2022-07-22T08:36:12;29.60;99.90
7472;DHT22;3777;48.722;8.110;2022-07-22T08:38:39;29.90;99.90
7472;DHT22;3777;48.722;8.110;2022-07-22T08:41:06;30.30;99.90
7472;DHT22;3777;48.722;8.110;2022-07-22T08:43:35;30.90;99.90
7472;DHT22;3777;48.722;8.110;2022-07-22T08:46:03;31.50;99.90
7472;DHT22;3777;48.722;8.110;2022-07-22T08:48:31;32.30;99.40
7472;DHT22;3777;48.722;8.110;2022-07-22T08:50:58;32.90;97.80
7472;DHT22;3777;48.722;8.110;2022-07-22T08:53:25;34.10;95.90
7472;DHT22;3777;48.722;8.110;2022-07-22T08:55:52;35.00;93.10
7472;DHT22;3777;48.722;8.110;2022-07-22T08:58:19;35.90;90.30
7472;DHT22;3777;48.722;8.110;2022-07-22T09:00:46;36.70;84.50
7472;DHT22;3777;48.722;8.110;2022-07-22T09:03:31;37.80;79.60
7472;DHT22;3777;48.722;8.110;2022-07-22T09:05:59;38.70;71.50
7472;DHT22;3777;48.722;8.110;2022-07-22T09:08:26;39.50;67.20
7472;DHT22;3777;48.722;8.110;2022-07-22T09:10:53;39.90;61.50
7472;DHT22;3777;48.722;8.110;2022-07-22T09:13:20;40.00;58.00
7472;DHT22;3777;48.722;8.110;2022-07-22T09:15:48;40.10;56.70
7472;DHT22;3777;48.722;8.110;2022-07-22T09:18:16;40.70;56.10
7472;DHT22;3777;48.722;8.110;2022-07-22T09:20:44;40.80;53.40
7472;DHT22;3777;48.722;8.110;2022-07-22T09:23:12;41.40;52.90
7472;DHT22;3777;48.722;8.110;2022-07-22T09:25:40;41.90;51.80
7472;DHT22;3777;48.722;8.110;2022-07-22T09:28:13;42.20;49.00
7472;DHT22;3777;48.722;8.110;2022-07-22T09:30:45;42.20;48.70
7472;DHT22;3777;48.722;8.110;2022-07-22T09:33:12;42.40;47.40
7472;DHT22;3777;48.722;8.110;2022-07-22T09:35:39;42.10;46.30
7472;DHT22;3777;48.722;8.110;2022-07-22T09:38:09;41.80;46.60
7472;DHT22;3777;48.722;8.110;2022-07-22T09:40:37;41.70;46.30
7472;DHT22;3777;48.722;8.110;2022-07-22T09:43:06;41.90;46.10
7472;DHT22;3777;48.722;8.110;2022-07-22T09:45:45;42.20;45.20
7472;DHT22;3777;48.722;8.110;2022-07-22T09:48:13;42.50;44.90
7472;DHT22;3777;48.722;8.110;2022-07-22T09:50:40;42.40;44.10
7472;DHT22;3777;48.722;8.110;2022-07-22T09:53:08;42.80;43.30
7472;DHT22;3777;48.722;8.110;2022-07-22T09:55:38;43.10;42.90
7472;DHT22;3777;48.722;8.110;2022-07-22T09:58:06;42.80;42.50
7472;DHT22;3777;48.722;8.110;2022-07-22T10:00:35;43.00;42.20
7472;DHT22;3777;48.722;8.110;2022-07-22T10:03:05;43.20;41.60
7472;DHT22;3777;48.722;8.110;2022-07-22T10:05:34;43.60;40.80
7472;DHT22;3777;48.722;8.110;2022-07-22T10:08:03;43.30;40.30
7472;DHT22;3777;48.722;8.110;2022-07-22T10:10:33;43.50;40.30
7472;DHT22;3777;48.722;8.110;2022-07-22T10:13:01;43.80;40.00
7472;DHT22;3777;48.722;8.110;2022-07-22T10:15:30;44.20;39.10
7472;DHT22;3777;48.722;8.110;2022-07-22T10:17:59;44.40;38.60
7472;DHT22;3777;48.722;8.110;2022-07-22T10:20:28;44.50;38.00
7472;DHT22;3777;48.722;8.110;2022-07-22T10:22:56;43.90;37.90
7472;DHT22;3777;48.722;8.110;2022-07-22T10:25:24;43.80;38.00
7472;DHT22;3777;48.722;8.110;2022-07-22T10:27:55;43.80;38.40
7472;DHT22;3777;48.722;8.110;2022-07-22T10:30:24;43.80;37.60
7472;DHT22;3777;48.722;8.110;2022-07-22T10:33:08;43.80;38.00
7472;DHT22;3777;48.722;8.110;2022-07-22T10:35:38;44.20;37.60
7472;DHT22;3777;48.722;8.110;2022-07-22T10:38:17;44.60;37.10
7472;DHT22;3777;48.722;8.110;2022-07-22T10:40:53;44.80;36.30
7472;DHT22;3777;48.722;8.110;2022-07-22T10:43:24;44.90;35.60
7472;DHT22;3777;48.722;8.110;2022-07-22T10:45:53;44.20;35.90
7472;DHT22;3777;48.722;8.110;2022-07-22T10:48:22;43.60;36.40
7472;DHT22;3777;48.722;8.110;2022-07-22T10:51:07;43.40;37.20
7472;DHT22;3777;48.722;8.110;2022-07-22T10:53:46;43.20;37.10
7472;DHT22;3777;48.722;8.110;2022-07-22T10:56:19;43.90;36.50
7472;DHT22;3777;48.722;8.110;2022-07-22T10:58:52;44.10;37.00
7472;DHT22;3777;48.722;8.110;2022-07-22T11:01:23;44.40;37.10
7472;DHT22;3777;48.722;8.110;2022-07-22T11:03:51;44.40;35.70
7472;DHT22;3777;48.722;8.110;2022-07-22T11:06:24;44.70;35.90
7472;DHT22;3777;48.722;8.110;2022-07-22T11:08:53;44.60;36.80
7472;DHT22;3777;48.722;8.110;2022-07-22T11:11:36;44.60;36.70
7472;DHT22;3777;48.722;8.110;2022-07-22T11:14:16;43.10;37.10
7472;DHT22;3777;48.722;8.110;2022-07-22T11:16:45;41.70;38.60
7472;DHT22;3777;48.722;8.110;2022-07-22T11:19:13;40.40;40.60
7472;DHT22;3777;48.722;8.110;2022-07-22T11:21:40;39.30;42.00
7472;DHT22;3777;48.722;8.110;2022-07-22T11:24:08;38.20;43.20
7472;DHT22;3777;48.722;8.110;2022-07-22T11:26:41;37.30;45.00
7472;DHT22;3777;48.722;8.110;2022-07-22T11:29:10;36.60;46.90
7472;DHT22;3777;48.722;8.110;2022-07-22T11:31:39;35.90;47.40
7472;DHT22;3777;48.722;8.110;2022-07-22T11:34:10;35.50;48.90
7472;DHT22;3777;48.722;8.110;2022-07-22T11:36:39;35.10;50.10
7472;DHT22;3777;48.722;8.110;2022-07-22T11:39:08;34.80;50.50
7472;DHT22;3777;48.722;8.110;2022-07-22T11:41:36;34.50;51.60
7472;DHT22;3777;48.722;8.110;2022-07-22T11:44:04;34.30;51.90
7472;DHT22;3777;48.722;8.110;2022-07-22T11:46:36;34.10;52.40
7472;DHT22;3777;48.722;8.110;2022-07-22T11:49:05;33.90;53.00
7472;DHT22;3777;48.722;8.110;2022-07-22T11:51:33;33.70;53.80
7472;DHT22;3777;48.722;8.110;2022-07-22T11:54:03;33.60;53.90
7472;DHT22;3777;48.722;8.110;2022-07-22T11:56:30;33.40;54.30
7472;DHT22;3777;48.722;8.110;2022-07-22T11:58:57;33.20;55.00
7472;DHT22;3777;48.722;8.110;2022-07-22T12:01:28;33.10;55.00
7472;DHT22;3777;48.722;8.110;2022-07-22T12:03:57;32.90;56.70
7472;DHT22;3777;48.722;8.110;2022-07-22T12:06:27;32.80;57.10
7472;DHT22;3777;48.722;8.110;2022-07-22T12:09:05;32.80;57.00
7472;DHT22;3777;48.722;8.110;2022-07-22T12:11:34;32.70;56.90
7472;DHT22;3777;48.722;8.110;2022-07-22T12:14:06;32.70;58.40
7472;DHT22;3777;48.722;8.110;2022-07-22T12:16:34;32.70;57.30
7472;DHT22;3777;48.722;8.110;2022-07-22T12:19:03;32.60;58.20
7472;DHT22;3777;48.722;8.110;2022-07-22T12:21:33;32.50;58.40
7472;DHT22;3777;48.722;8.110;2022-07-22T12:24:01;32.40;59.70
7472;DHT22;3777;48.722;8.110;2022-07-22T12:26:43;32.40;59.00
7472;DHT22;3777;48.722;8.110;2022-07-22T12:29:16;32.40;59.40
7472;DHT22;3777;48.722;8.110;2022-07-22T12:31:43;32.50;59.60
7472;DHT22;3777;48.722;8.110;2022-07-22T12:34:11;32.50;59.60
7472;DHT22;3777;48.722;8.110;2022-07-22T12:36:43;32.50;59.60
7472;DHT22;3777;48.722;8.110;2022-07-22T12:39:15;32.40;58.90
7472;DHT22;3777;48.722;8.110;2022-07-22T12:41:53;32.20;60.00
7472;DHT22;3777;48.722;8.110;2022-07-22T12:44:22;32.20;59.90
7472;DHT22;3777;48.722;8.110;2022-07-22T12:46:50;32.20;60.90
7472;DHT22;3777;48.722;8.110;2022-07-22T12:49:20;32.10;60.40
7472;DHT22;3777;48.722;8.110;2022-07-22T12:52:13;32.00;61.50
7472;DHT22;3777;48.722;8.110;2022-07-22T12:54:40;32.10;62.40
7472;DHT22;3777;48.722;8.110;2022-07-22T12:57:08;32.10;62.50
7472;DHT22;3777;48.722;8.110;2022-07-22T12:59:36;32.00;60.80
7472;DHT22;3777;48.722;8.110;2022-07-22T13:02:03;31.90;60.00
7472;DHT22;3777;48.722;8.110;2022-07-22T13:04:31;31.70;61.20
7472;DHT22;3777;48.722;8.110;2022-07-22T13:06:57;31.60;61.90
7472;DHT22;3777;48.722;8.110;2022-07-22T13:09:26;31.50;62.40
7472;DHT22;3777;48.722;8.110;2022-07-22T13:11:53;31.50;61.40
7472;DHT22;3777;48.722;8.110;2022-07-22T13:14:20;31.40;62.10
7472;DHT22;3777;48.722;8.110;2022-07-22T13:16:47;31.50;62.30
7472;DHT22;3777;48.722;8.110;2022-07-22T13:19:14;31.50;64.50
7472;DHT22;3777;48.722;8.110;2022-07-22T13:21:41;31.60;63.90
7472;DHT22;3777;48.722;8.110;2022-07-22T13:24:10;31.70;62.00
7472;DHT22;3777;48.722;8.110;2022-07-22T13:26:38;31.70;62.40
7472;DHT22;3777;48.722;8.110;2022-07-22T13:29:05;31.70;62.70
7472;DHT22;3777;48.722;8.110;2022-07-22T13:31:33;31.80;62.10
7472;DHT22;3777;48.722;8.110;2022-07-22T13:34:00;31.80;61.90
7472;DHT22;3777;48.722;8.110;2022-07-22T13:36:27;31.80;61.50
7472;DHT22;3777;48.722;8.110;2022-07-22T13:38:58;31.70;62.70
7472;DHT22;3777;48.722;8.110;2022-07-22T13:41:25;31.80;63.60
7472;DHT22;3777;48.722;8.110;2022-07-22T13:43:53;31.80;62.80
7472;DHT22;3777;48.722;8.110;2022-07-22T13:46:20;31.80;62.80
7472;DHT22;3777;48.722;8.110;2022-07-22T13:48:47;31.90;62.20
7472;DHT22;3777;48.722;8.110;2022-07-22T13:51:14;31.80;62.10
7472;DHT22;3777;48.722;8.110;2022-07-22T13:53:41;31.80;62.70
7472;DHT22;3777;48.722;8.110;2022-07-22T13:56:08;31.80;62.60
7472;DHT22;3777;48.722;8.110;2022-07-22T13:58:37;31.80;65.00
7472;DHT22;3777;48.722;8.110;2022-07-22T14:01:08;31.90;63.10
7472;DHT22;3777;48.722;8.110;2022-07-22T14:03:36;31.90;63.50
7472;DHT22;3777;48.722;8.110;2022-07-22T14:06:04;31.90;63.10
7472;DHT22;3777;48.722;8.110;2022-07-22T14:08:32;32.00;63.30
7472;DHT22;3777;48.722;8.110;2022-07-22T14:10:59;32.00;63.30
7472;DHT22;3777;48.722;8.110;2022-07-22T14:13:26;32.00;62.60
7472;DHT22;3777;48.722;8.110;2022-07-22T14:15:53;32.10;62.40
7472;DHT22;3777;48.722;8.110;2022-07-22T14:18:21;32.10;63.30
7472;DHT22;3777;48.722;8.110;2022-07-22T14:20:48;32.10;62.50
7472;DHT22;3777;48.722;8.110;2022-07-22T14:23:15;32.10;62.10
7472;DHT22;3777;48.722;8.110;2022-07-22T14:25:46;32.10;66.60
7472;DHT22;3777;48.722;8.110;2022-07-22T14:28:13;32.10;66.50
7472;DHT22;3777;48.722;8.110;2022-07-22T14:30:40;32.20;62.00
7472;DHT22;3777;48.722;8.110;2022-07-22T14:33:07;32.20;62.60
7472;DHT22;3777;48.722;8.110;2022-07-22T14:35:35;32.20;64.20
7472;DHT22;3777;48.722;8.110;2022-07-22T14:38:02;32.20;64.00
7472;DHT22;3777;48.722;8.110;2022-07-22T14:40:29;32.30;62.10
7472;DHT22;3777;48.722;8.110;2022-07-22T14:42:56;32.30;63.30
7472;DHT22;3777;48.722;8.110;2022-07-22T14:45:23;32.20;62.00
7472;DHT22;3777;48.722;8.110;2022-07-22T14:47:51;32.30;61.90
7472;DHT22;3777;48.722;8.110;2022-07-22T14:50:18;32.30;62.70
7472;DHT22;3777;48.722;8.110;2022-07-22T14:52:46;32.40;63.10
7472;DHT22;3777;48.722;8.110;2022-07-22T14:55:13;32.40;63.20
7472;DHT22;3777;48.722;8.110;2022-07-22T14:57:41;32.40;63.50
7472;DHT22;3777;48.722;8.110;2022-07-22T15:00:08;32.40;62.00
7472;DHT22;3777;48.722;8.110;2022-07-22T15:02:35;32.40;60.50
7472;DHT22;3777;48.722;8.110;2022-07-22T15:05:03;32.30;60.00
7472;DHT22;3777;48.722;8.110;2022-07-22T15:07:30;32.30;60.40
7472;DHT22;3777;48.722;8.110;2022-07-22T15:09:58;32.20;60.50
7472;DHT22;3777;48.722;8.110;2022-07-22T15:12:25;32.20;61.50
7472;DHT22;3777;48.722;8.110;2022-07-22T15:14:52;32.10;61.50
7472;DHT22;3777;48.722;8.110;2022-07-22T15:17:19;32.10;60.60
7472;DHT22;3777;48.722;8.110;2022-07-22T15:19:46;32.10;61.10
7472;DHT22;3777;48.722;8.110;2022-07-22T15:22:13;32.10;61.10
7472;DHT22;3777;48.722;8.110;2022-07-22T15:24:40;32.00;60.30
7472;DHT22;3777;48.722;8.110;2022-07-22T15:27:09;32.00;61.70
7472;DHT22;3777;48.722;8.110;2022-07-22T15:29:36;32.00;61.90
7472;DHT22;3777;48.722;8.110;2022-07-22T15:32:03;31.90;63.20
7472;DHT22;3777;48.722;8.110;2022-07-22T15:34:31;32.00;62.30
7472;DHT22;3777;48.722;8.110;2022-07-22T15:36:59;31.90;62.10
7472;DHT22;3777;48.722;8.110;2022-07-22T15:39:26;31.90;62.30
7472;DHT22;3777;48.722;8.110;2022-07-22T15:41:53;31.90;63.20
7472;DHT22;3777;48.722;8.110;2022-07-22T15:44:21;31.90;61.80
7472;DHT22;3777;48.722;8.110;2022-07-22T15:46:48;31.90;62.90
7472;DHT22;3777;48.722;8.110;2022-07-22T15:49:15;31.90;62.40
7472;DHT22;3777;48.722;8.110;2022-07-22T15:51:43;32.00;62.00
7472;DHT22;3777;48.722;8.110;2022-07-22T15:54:10;32.00;61.30
7472;DHT22;3777;48.722;8.110;2022-07-22T15:56:37;32.00;60.50
7472;DHT22;3777;48.722;8.110;2022-07-22T15:59:04;31.90;62.10
7472;DHT22;3777;48.722;8.110;2022-07-22T16:01:58;31.90;61.70
7472;DHT22;3777;48.722;8.110;2022-07-22T16:04:25;31.90;61.50
7472;DHT22;3777;48.722;8.110;2022-07-22T16:06:52;31.80;62.70
7472;DHT22;3777;48.722;8.110;2022-07-22T16:09:19;31.80;64.10